sensor_id;sensor_type;location;lat;lon;timestamp;temperature;humidity
843;DHT22;407;48.884;9.126;2023-06-14T00:01:19;15.80;99.90
843;DHT22;407;48.884;9.126;2023-06-14T00:03:47;15.80;99.90
843;DHT22;407;48.884;9.126;2023-06-14T00:06:13;15.80;99.90
843;DHT22;407;48.884;9.126;2023-06-14T00:08:39;15.80;99.90
843;DHT22;407;48.884;9.126;2023-06-14T00:11:06;15.90;99.90
843;DHT22;407;48.884;9.126;2023-06-14T00:13:31;15.80;99.90
843;DHT22;407;48.884;9.126;2023-06-14T00:15:57;15.70;99.90
843;DHT22;407;48.884;9.126;2023-06-14T00:18:23;15.70;99.90
843;DHT22;407;48.884;9.126;2023-06-14T00:20:55;15.60;99.90
843;DHT22;407;48.884;9.126;2023-06-14T00:23:20;15.50;99.90
843;DHT22;407;48.884;9.126;2023-06-14T00:25:46;15.40;99.90
843;DHT22;407;48.884;9.126;2023-06-14T00:28:12;15.40;99.90
843;DHT22;407;48.884;9.126;2023-06-14T00:30:37;15.40;99.90
843;DHT22;407;48.884;9.126;2023-06-14T00:33:03;15.40;99.90
843;DHT22;407;48.884;9.126;2023-06-14T00:35:29;15.30;99.90
843;DHT22;407;48.884;9.126;2023-06-14T00:37:54;15.20;99.90
843;DHT22;407;48.884;9.126;2023-06-14T00:40:21;15.20;99.90
843;DHT22;407;48.884;9.126;2023-06-14T00:42:47;15.30;99.90
843;DHT22;407;48.884;9.126;2023-06-14T00:45:13;15.40;99.90
843;DHT22;407;48.884;9.126;2023-06-14T00:47:38;15.30;99.90
843;DHT22;407;48.884;9.126;2023-06-14T00:50:07;15.40;99.90
843;DHT22;407;48.884;9.126;2023-06-14T00:52:32;15.30;99.90
843;DHT22;407;48.884;9.126;2023-06-14T00:54:58;15.20;99.90
843;DHT22;407;48.884;9.126;2023-06-14T00:57:24;15.10;99.90
843;DHT22;407;48.884;9.126;2023-06-14T00:59:50;15.00;99.90
843;DHT22;407;48.884;9.126;2023-06-14T01:02:16;14.90;99.90
843;DHT22;407;48.884;9.126;2023-06-14T01:04:43;14.90;99.90
843;DHT22;407;48.884;9.126;2023-06-14T01:15:35;14.60;99.90
843;DHT22;407;48.884;9.126;2023-06-14T01:18:02;14.50;99.90
843;DHT22;407;48.884;9.126;2023-06-14T01:20:32;14.40;99.90
843;DHT22;407;48.884;9.126;2023-06-14T01:22:59;14.30;99.90
843;DHT22;407;48.884;9.126;2023-06-14T01:25:25;14.20;99.90
843;DHT22;407;48.884;9.126;2023-06-14T01:27:55;14.20;99.90
843;DHT22;407;48.884;9.126;2023-06-14T01:30:23;14.20;99.90
843;DHT22;407;48.884;9.126;2023-06-14T01:32:51;14.20;99.90
843;DHT22;407;48.884;9.126;2023-06-14T01:35:17;14.10;99.90
843;DHT22;407;48.884;9.126;2023-06-14T01:37:43;14.10;99.90
843;DHT22;407;48.884;9.126;2023-06-14T01:40:10;14.10;99.90
843;DHT22;407;48.884;9.126;2023-06-14T01:42:38;14.10;99.90
843;DHT22;407;48.884;9.126;2023-06-14T01:45:05;14.10;99.90
843;DHT22;407;48.884;9.126;2023-06-14T01:47:32;14.30;99.90
843;DHT22;407;48.884;9.126;2023-06-14T01:49:58;14.30;99.90
843;DHT22;407;48.884;9.126;2023-06-14T01:52:23;14.30;99.90
843;DHT22;407;48.884;9.126;2023-06-14T01:54:50;14.20;99.90
843;DHT22;407;48.884;9.126;2023-06-14T01:57:15;14.00;99.90
843;DHT22;407;48.884;9.126;2023-06-14T01:59:41;13.90;99.90
843;DHT22;407;48.884;9.126;2023-06-14T02:02:07;13.80;99.90
843;DHT22;407;48.884;9.126;2023-06-14T02:04:33;13.80;99.90
843;DHT22;407;48.884;9.126;2023-06-14T02:06:58;13.70;1.00
843;DHT22;407;48.884;9.126;2023-06-14T02:09:24;13.70;1.00
843;DHT22;407;48.884;9.126;2023-06-14T02:11:50;13.50;1.00
843;DHT22;407;48.884;9.126;2023-06-14T02:14:16;13.50;1.00
843;DHT22;407;48.884;9.126;2023-06-14T02:16:42;13.50;1.00
843;DHT22;407;48.884;9.126;2023-06-14T02:19:17;13.50;1.00
843;DHT22;407;48.884;9.126;2023-06-14T02:21:43;13.30;1.00
843;DHT22;407;48.884;9.126;2023-06-14T02:24:09;13.10;1.00
843;DHT22;407;48.884;9.126;2023-06-14T02:26:34;13.10;1.00
843;DHT22;407;48.884;9.126;2023-06-14T02:29:00;13.10;1.00
843;DHT22;407;48.884;9.126;2023-06-14T02:31:26;13.10;1.00
843;DHT22;407;48.884;9.126;2023-06-14T02:33:52;13.10;1.00
843;DHT22;407;48.884;9.126;2023-06-14T02:36:17;13.20;1.00
843;DHT22;407;48.884;9.126;2023-06-14T02:38:43;13.30;1.00
843;DHT22;407;48.884;9.126;2023-06-14T02:41:08;13.30;1.00
843;DHT22;407;48.884;9.126;2023-06-14T02:43:34;13.20;79.70
843;DHT22;407;48.884;9.126;2023-06-14T02:46:00;13.30;45.30
843;DHT22;407;48.884;9.126;2023-06-14T02:48:25;13.30;30.40
843;DHT22;407;48.884;9.126;2023-06-14T02:50:51;13.30;5.10
843;DHT22;407;48.884;9.126;2023-06-14T02:53:17;13.30;1.00
843;DHT22;407;48.884;9.126;2023-06-14T02:55:42;13.40;1.00
843;DHT22;407;48.884;9.126;2023-06-14T02:58:08;13.40;1.00
843;DHT22;407;48.884;9.126;2023-06-14T03:00:33;13.20;33.00
843;DHT22;407;48.884;9.126;2023-06-14T03:03:00;13.20;99.90
843;DHT22;407;48.884;9.126;2023-06-14T03:05:27;13.10;99.90
843;DHT22;407;48.884;9.126;2023-06-14T03:07:53;13.00;99.90
843;DHT22;407;48.884;9.126;2023-06-14T03:10:19;13.00;99.90
843;DHT22;407;48.884;9.126;2023-06-14T03:12:46;13.00;99.90
843;DHT22;407;48.884;9.126;2023-06-14T03:15:12;13.00;99.90
843;DHT22;407;48.884;9.126;2023-06-14T03:17:38;12.90;99.90
843;DHT22;407;48.884;9.126;2023-06-14T03:20:04;12.90;99.90
843;DHT22;407;48.884;9.126;2023-06-14T03:22:31;13.00;99.90
843;DHT22;407;48.884;9.126;2023-06-14T03:24:59;13.00;99.90
843;DHT22;407;48.884;9.126;2023-06-14T03:27:25;13.00;99.90
843;DHT22;407;48.884;9.126;2023-06-14T03:29:53;12.90;99.90
843;DHT22;407;48.884;9.126;2023-06-14T03:32:19;13.00;99.90
843;DHT22;407;48.884;9.126;2023-06-14T03:34:45;13.00;99.90
843;DHT22;407;48.884;9.126;2023-06-14T03:37:10;13.00;99.90
843;DHT22;407;48.884;9.126;2023-06-14T03:39:36;13.00;99.90
843;DHT22;407;48.884;9.126;2023-06-14T03:42:02;13.10;99.90
843;DHT22;407;48.884;9.126;2023-06-14T03:44:27;13.10;99.90
843;DHT22;407;48.884;9.126;2023-06-14T03:46:53;13.00;99.90
843;DHT22;407;48.884;9.126;2023-06-14T03:49:18;13.00;99.90
843;DHT22;407;48.884;9.126;2023-06-14T03:51:44;13.20;99.90
843;DHT22;407;48.884;9.126;2023-06-14T03:54:10;13.30;99.90
843;DHT22;407;48.884;9.126;2023-06-14T03:56:35;13.40;99.90
843;DHT22;407;48.884;9.126;2023-06-14T03:59:01;13.50;99.90
843;DHT22;407;48.884;9.126;2023-06-14T04:01:27;13.50;65.50
843;DHT22;407;48.884;9.126;2023-06-14T04:03:56;13.50;90.70
843;DHT22;407;48.884;9.126;2023-06-14T04:06:22;13.40;99.90
843;DHT22;407;48.884;9.126;2023-06-14T04:08:50;13.40;99.90
843;DHT22;407;48.884;9.126;2023-06-14T04:11:16;13.40;99.90
843;DHT22;407;48.884;9.126;2023-06-14T04:13:41;13.40;99.90
843;DHT22;407;48.884;9.126;2023-06-14T04:16:07;13.40;99.90
843;DHT22;407;48.884;9.126;2023-06-14T04:18:32;13.40;99.90
843;DHT22;407;48.884;9.126;2023-06-14T04:20:58;13.40;99.90
843;DHT22;407;48.884;9.126;2023-06-14T04:23:23;13.40;99.90
843;DHT22;407;48.884;9.126;2023-06-14T04:25:49;13.50;99.90
843;DHT22;407;48.884;9.126;2023-06-14T04:28:15;13.50;99.90
843;DHT22;407;48.884;9.126;2023-06-14T04:30:42;13.70;99.90
843;DHT22;407;48.884;9.126;2023-06-14T04:33:08;13.70;67.80
843;DHT22;407;48.884;9.126;2023-06-14T04:35:35;13.70;99.20
843;DHT22;407;48.884;9.126;2023-06-14T04:38:02;13.90;60.50
843;DHT22;407;48.884;9.126;2023-06-14T04:40:30;14.00;14.30
843;DHT22;407;48.884;9.126;2023-06-14T04:42:56;14.20;1.00
843;DHT22;407;48.884;9.126;2023-06-14T04:45:23;14.40;1.00
843;DHT22;407;48.884;9.126;2023-06-14T04:47:49;14.60;1.00
843;DHT22;407;48.884;9.126;2023-06-14T04:50:16;14.80;1.00
843;DHT22;407;48.884;9.126;2023-06-14T04:52:42;14.90;1.00
843;DHT22;407;48.884;9.126;2023-06-14T04:55:08;15.10;1.00
843;DHT22;407;48.884;9.126;2023-06-14T04:57:34;15.60;1.00
843;DHT22;407;48.884;9.126;2023-06-14T05:00:00;16.60;99.90
843;DHT22;407;48.884;9.126;2023-06-14T05:02:26;18.00;99.90
843;DHT22;407;48.884;9.126;2023-06-14T05:04:53;19.60;99.90
843;DHT22;407;48.884;9.126;2023-06-14T05:07:18;20.90;99.90
843;DHT22;407;48.884;9.126;2023-06-14T05:09:45;22.20;99.90
843;DHT22;407;48.884;9.126;2023-06-14T05:12:11;23.30;99.90
843;DHT22;407;48.884;9.126;2023-06-14T05:14:37;23.90;99.90
843;DHT22;407;48.884;9.126;2023-06-14T05:17:02;24.60;99.90
843;DHT22;407;48.884;9.126;2023-06-14T05:19:28;25.20;99.90
843;DHT22;407;48.884;9.126;2023-06-14T05:21:54;26.30;99.90
843;DHT22;407;48.884;9.126;2023-06-14T05:24:19;26.50;99.90
843;DHT22;407;48.884;9.126;2023-06-14T05:26:45;26.00;99.90
843;DHT22;407;48.884;9.126;2023-06-14T05:29:11;25.70;99.90
843;DHT22;407;48.884;9.126;2023-06-14T05:31:37;25.30;99.90
843;DHT22;407;48.884;9.126;2023-06-14T05:34:03;25.60;99.90
843;DHT22;407;48.884;9.126;2023-06-14T05:36:29;26.70;99.90
843;DHT22;407;48.884;9.126;2023-06-14T05:38:54;27.30;99.90
843;DHT22;407;48.884;9.126;2023-06-14T05:41:24;27.90;99.90
843;DHT22;407;48.884;9.126;2023-06-14T05:43:51;28.80;99.90
843;DHT22;407;48.884;9.126;2023-06-14T05:46:16;29.20;99.90
843;DHT22;407;48.884;9.126;2023-06-14T05:48:47;29.00;99.90
843;DHT22;407;48.884;9.126;2023-06-14T05:51:13;29.10;99.90
843;DHT22;407;48.884;9.126;2023-06-14T05:53:38;28.60;99.90
843;DHT22;407;48.884;9.126;2023-06-14T05:56:04;28.10;99.90
843;DHT22;407;48.884;9.126;2023-06-14T05:58:29;28.60;99.90
843;DHT22;407;48.884;9.126;2023-06-14T06:00:55;27.80;99.90
843;DHT22;407;48.884;9.126;2023-06-14T06:03:20;27.70;99.90
843;DHT22;407;48.884;9.126;2023-06-14T06:05:46;28.20;99.90
843;DHT22;407;48.884;9.126;2023-06-14T06:08:12;28.20;99.90
843;DHT22;407;48.884;9.126;2023-06-14T06:10:38;28.10;99.90
843;DHT22;407;48.884;9.126;2023-06-14T06:13:04;27.00;99.90
843;DHT22;407;48.884;9.126;2023-06-14T06:15:29;26.50;99.90
843;DHT22;407;48.884;9.126;2023-06-14T06:17:55;26.70;99.90
843;DHT22;407;48.884;9.126;2023-06-14T06:20:21;27.70;99.90
843;DHT22;407;48.884;9.126;2023-06-14T06:22:52;28.10;99.90
843;DHT22;407;48.884;9.126;2023-06-14T06:25:19;28.70;99.90
843;DHT22;407;48.884;9.126;2023-06-14T06:27:44;29.40;99.90
843;DHT22;407;48.884;9.126;2023-06-14T06:30:10;29.80;99.90
843;DHT22;407;48.884;9.126;2023-06-14T06:32:36;30.50;99.90
843;DHT22;407;48.884;9.126;2023-06-14T06:35:02;29.70;99.90
843;DHT22;407;48.884;9.126;2023-06-14T06:37:28;29.60;99.90
843;DHT22;407;48.884;9.126;2023-06-14T06:39:54;29.30;99.90
843;DHT22;407;48.884;9.126;2023-06-14T06:42:19;29.80;99.90
843;DHT22;407;48.884;9.126;2023-06-14T06:44:45;30.60;99.90
843;DHT22;407;48.884;9.126;2023-06-14T06:47:10;30.30;99.90
843;DHT22;407;48.884;9.126;2023-06-14T06:49:36;30.10;99.90
843;DHT22;407;48.884;9.126;2023-06-14T06:52:06;29.40;99.90
843;DHT22;407;48.884;9.126;2023-06-14T06:54:32;29.20;99.90
843;DHT22;407;48.884;9.126;2023-06-14T06:56:58;29.40;99.90
843;DHT22;407;48.884;9.126;2023-06-14T06:59:24;29.20;99.90
843;DHT22;407;48.884;9.126;2023-06-14T07:01:50;28.40;99.90
843;DHT22;407;48.884;9.126;2023-06-14T07:04:15;28.50;99.90
843;DHT22;407;48.884;9.126;2023-06-14T07:06:42;29.40;99.90
843;DHT22;407;48.884;9.126;2023-06-14T07:09:08;29.50;99.90
843;DHT22;407;48.884;9.126;2023-06-14T07:11:40;29.90;99.90
843;DHT22;407;48.884;9.126;2023-06-14T07:14:06;29.70;99.90
843;DHT22;407;48.884;9.126;2023-06-14T07:16:32;30.50;99.90
843;DHT22;407;48.884;9.126;2023-06-14T07:18:58;31.10;99.90
843;DHT22;407;48.884;9.126;2023-06-14T07:21:23;31.20;99.90
843;DHT22;407;48.884;9.126;2023-06-14T07:23:51;31.20;99.90
843;DHT22;407;48.884;9.126;2023-06-14T07:26:16;31.50;99.90
843;DHT22;407;48.884;9.126;2023-06-14T07:28:42;31.10;99.90
843;DHT22;407;48.884;9.126;2023-06-14T07:31:10;31.80;99.90
843;DHT22;407;48.884;9.126;2023-06-14T07:33:36;31.50;99.90
843;DHT22;407;48.884;9.126;2023-06-14T07:36:03;31.30;99.90
843;DHT22;407;48.884;9.126;2023-06-14T07:38:29;31.30;99.90
843;DHT22;407;48.884;9.126;2023-06-14T07:40:54;31.10;99.90
843;DHT22;407;48.884;9.126;2023-06-14T07:43:20;31.70;99.90
843;DHT22;407;48.884;9.126;2023-06-14T07:45:45;32.50;99.90
843;DHT22;407;48.884;9.126;2023-06-14T07:48:11;32.50;99.90
843;DHT22;407;48.884;9.126;2023-06-14T07:50:37;32.00;99.90
843;DHT22;407;48.884;9.126;2023-06-14T07:53:02;32.30;99.90
843;DHT22;407;48.884;9.126;2023-06-14T07:55:28;32.00;99.90
843;DHT22;407;48.884;9.126;2023-06-14T07:57:54;31.10;99.90
843;DHT22;407;48.884;9.126;2023-06-14T08:00:20;32.20;99.90
843;DHT22;407;48.884;9.126;2023-06-14T08:02:46;31.90;99.90
843;DHT22;407;48.884;9.126;2023-06-14T08:05:12;31.80;99.90
843;DHT22;407;48.884;9.126;2023-06-14T08:07:38;32.20;99.90
843;DHT22;407;48.884;9.126;2023-06-14T08:10:05;32.20;99.90
843;DHT22;407;48.884;9.126;2023-06-14T08:12:30;32.80;99.90
843;DHT22;407;48.884;9.126;2023-06-14T08:14:56;32.40;99.90
843;DHT22;407;48.884;9.126;2023-06-14T08:17:21;32.80;99.90
843;DHT22;407;48.884;9.126;2023-06-14T08:19:47;33.60;99.90
843;DHT22;407;48.884;9.126;2023-06-14T08:22:13;33.90;99.90
843;DHT22;407;48.884;9.126;2023-06-14T08:24:38;34.70;99.90
843;DHT22;407;48.884;9.126;2023-06-14T08:27:06;34.90;99.90
843;DHT22;407;48.884;9.126;2023-06-14T08:29:32;35.80;99.90
843;DHT22;407;48.884;9.126;2023-06-14T08:31:57;36.20;99.90
843;DHT22;407;48.884;9.126;2023-06-14T08:34:23;36.40;99.90
843;DHT22;407;48.884;9.126;2023-06-14T08:36:50;35.50;99.90
843;DHT22;407;48.884;9.126;2023-06-14T08:39:15;34.40;99.90
843;DHT22;407;48.884;9.126;2023-06-14T08:41:43;33.80;99.90
843;DHT22;407;48.884;9.126;2023-06-14T08:44:10;32.70;99.90
843;DHT22;407;48.884;9.126;2023-06-14T08:46:37;31.90;99.90
843;DHT22;407;48.884;9.126;2023-06-14T08:49:03;32.50;99.90
843;DHT22;407;48.884;9.126;2023-06-14T08:51:31;33.20;99.90
843;DHT22;407;48.884;9.126;2023-06-14T08:54:02;32.80;99.90
843;DHT22;407;48.884;9.126;2023-06-14T08:56:30;32.60;99.90
843;DHT22;407;48.884;9.126;2023-06-14T08:58:57;32.30;99.90
843;DHT22;407;48.884;9.126;2023-06-14T09:01:23;32.40;99.90
843;DHT22;407;48.884;9.126;2023-06-14T09:03:50;33.10;99.90
843;DHT22;407;48.884;9.126;2023-06-14T09:06:16;33.70;99.90
843;DHT22;407;48.884;9.126;2023-06-14T09:08:45;34.10;99.90
843;DHT22;407;48.884;9.126;2023-06-14T09:11:12;34.40;99.90
843;DHT22;407;48.884;9.126;2023-06-14T09:13:39;34.40;99.90
843;DHT22;407;48.884;9.126;2023-06-14T09:16:05;35.30;99.90
843;DHT22;407;48.884;9.126;2023-06-14T09:18:44;35.90;99.90
843;DHT22;407;48.884;9.126;2023-06-14T09:21:11;34.30;99.90
843;DHT22;407;48.884;9.126;2023-06-14T09:23:38;34.10;99.90
843;DHT22;407;48.884;9.126;2023-06-14T09:26:14;33.70;99.90
843;DHT22;407;48.884;9.126;2023-06-14T09:28:48;33.50;99.90
843;DHT22;407;48.884;9.126;2023-06-14T09:31:15;34.50;99.90
843;DHT22;407;48.884;9.126;2023-06-14T09:33:49;34.40;99.90
843;DHT22;407;48.884;9.126;2023-06-14T09:36:18;35.00;99.90
843;DHT22;407;48.884;9.126;2023-06-14T09:38:57;35.40;99.90
843;DHT22;407;48.884;9.126;2023-06-14T09:41:40;34.70;99.90
843;DHT22;407;48.884;9.126;2023-06-14T09:44:08;34.80;99.90
843;DHT22;407;48.884;9.126;2023-06-14T09:46:35;34.90;99.90
843;DHT22;407;48.884;9.126;2023-06-14T09:49:02;33.20;99.90
843;DHT22;407;48.884;9.126;2023-06-14T09:51:28;30.60;99.90
843;DHT22;407;48.884;9.126;2023-06-14T09:53:59;31.30;99.90
843;DHT22;407;48.884;9.126;2023-06-14T09:56:29;32.20;99.90
843;DHT22;407;48.884;9.126;2023-06-14T09:58:57;33.10;99.90
843;DHT22;407;48.884;9.126;2023-06-14T10:01:27;33.60;99.90
843;DHT22;407;48.884;9.126;2023-06-14T10:04:05;33.40;99.90
843;DHT22;407;48.884;9.126;2023-06-14T10:06:31;33.20;99.90
843;DHT22;407;48.884;9.126;2023-06-14T10:08:59;33.40;99.90
843;DHT22;407;48.884;9.126;2023-06-14T10:11:26;33.80;99.90
843;DHT22;407;48.884;9.126;2023-06-14T10:13:51;34.00;99.90
843;DHT22;407;48.884;9.126;2023-06-14T10:16:30;34.50;99.90
843;DHT22;407;48.884;9.126;2023-06-14T10:21:45;34.80;99.90
843;DHT22;407;48.884;9.126;2023-06-14T10:24:13;33.80;99.90
843;DHT22;407;48.884;9.126;2023-06-14T10:26:57;32.20;99.90
843;DHT22;407;48.884;9.126;2023-06-14T10:29:24;30.40;99.90
843;DHT22;407;48.884;9.126;2023-06-14T10:31:53;28.90;99.90
843;DHT22;407;48.884;9.126;2023-06-14T10:34:25;28.60;99.90
843;DHT22;407;48.884;9.126;2023-06-14T10:37:15;29.20;99.90
843;DHT22;407;48.884;9.126;2023-06-14T10:39:43;28.90;99.90
843;DHT22;407;48.884;9.126;2023-06-14T10:42:10;28.20;99.90
843;DHT22;407;48.884;9.126;2023-06-14T10:44:39;27.90;99.90
843;DHT22;407;48.884;9.126;2023-06-14T10:47:32;27.90;99.90
843;DHT22;407;48.884;9.126;2023-06-14T10:50:06;27.90;99.90
843;DHT22;407;48.884;9.126;2023-06-14T10:52:34;28.30;99.90
843;DHT22;407;48.884;9.126;2023-06-14T10:57:39;29.40;99.90
843;DHT22;407;48.884;9.126;2023-06-14T11:00:06;29.50;99.90
843;DHT22;407;48.884;9.126;2023-06-14T11:05:30;30.00;99.90
843;DHT22;407;48.884;9.126;2023-06-14T11:10:44;29.60;99.90
843;DHT22;407;48.884;9.126;2023-06-14T11:13:12;29.90;99.90
843;DHT22;407;48.884;9.126;2023-06-14T11:15:39;29.90;99.90
843;DHT22;407;48.884;9.126;2023-06-14T11:18:08;29.20;99.90
843;DHT22;407;48.884;9.126;2023-06-14T11:20:36;29.50;99.90
843;DHT22;407;48.884;9.126;2023-06-14T11:23:03;29.90;99.90
843;DHT22;407;48.884;9.126;2023-06-14T11:25:29;30.30;99.90
843;DHT22;407;48.884;9.126;2023-06-14T11:27:55;30.60;99.90
843;DHT22;407;48.884;9.126;2023-06-14T11:30:22;29.90;99.90
843;DHT22;407;48.884;9.126;2023-06-14T11:32:48;29.60;99.90
843;DHT22;407;48.884;9.126;2023-06-14T11:35:14;29.40;99.90
843;DHT22;407;48.884;9.126;2023-06-14T11:37:40;29.20;99.90
843;DHT22;407;48.884;9.126;2023-06-14T11:40:08;29.40;99.90
843;DHT22;407;48.884;9.126;2023-06-14T11:42:36;28.80;99.90
843;DHT22;407;48.884;9.126;2023-06-14T11:45:02;28.80;99.90
843;DHT22;407;48.884;9.126;2023-06-14T11:47:33;29.10;99.90
843;DHT22;407;48.884;9.126;2023-06-14T11:50:02;29.10;99.90
843;DHT22;407;48.884;9.126;2023-06-14T11:52:28;29.00;99.90
843;DHT22;407;48.884;9.126;2023-06-14T11:54:54;29.10;99.90
843;DHT22;407;48.884;9.126;2023-06-14T11:57:20;29.10;99.90
843;DHT22;407;48.884;9.126;2023-06-14T11:59:46;28.90;99.90
843;DHT22;407;48.884;9.126;2023-06-14T12:02:16;28.60;99.90
843;DHT22;407;48.884;9.126;2023-06-14T12:04:47;28.50;99.90
843;DHT22;407;48.884;9.126;2023-06-14T12:07:17;27.90;99.90
843;DHT22;407;48.884;9.126;2023-06-14T12:12:25;27.90;99.90
843;DHT22;407;48.884;9.126;2023-06-14T12:14:51;27.20;99.90
843;DHT22;407;48.884;9.126;2023-06-14T12:17:17;27.60;99.90
843;DHT22;407;48.884;9.126;2023-06-14T12:19:44;28.10;99.90
843;DHT22;407;48.884;9.126;2023-06-14T12:22:11;28.30;99.90
843;DHT22;407;48.884;9.126;2023-06-14T12:24:37;28.20;99.90
843;DHT22;407;48.884;9.126;2023-06-14T12:27:03;28.30;99.90
843;DHT22;407;48.884;9.126;2023-06-14T12:29:30;28.40;99.90
843;DHT22;407;48.884;9.126;2023-06-14T12:31:56;28.70;99.90
843;DHT22;407;48.884;9.126;2023-06-14T12:34:28;28.60;99.90
843;DHT22;407;48.884;9.126;2023-06-14T12:36:54;28.30;99.90
843;DHT22;407;48.884;9.126;2023-06-14T12:39:20;28.20;99.90
843;DHT22;407;48.884;9.126;2023-06-14T12:41:46;28.20;99.90
843;DHT22;407;48.884;9.126;2023-06-14T12:44:12;28.20;99.90
843;DHT22;407;48.884;9.126;2023-06-14T12:46:39;28.40;99.90
843;DHT22;407;48.884;9.126;2023-06-14T12:49:05;28.60;99.90
843;DHT22;407;48.884;9.126;2023-06-14T12:51:32;28.40;99.90
843;DHT22;407;48.884;9.126;2023-06-14T12:53:57;28.70;99.90
843;DHT22;407;48.884;9.126;2023-06-14T12:56:23;28.60;99.90
843;DHT22;407;48.884;9.126;2023-06-14T12:58:48;28.90;99.90
843;DHT22;407;48.884;9.126;2023-06-14T13:01:14;29.00;99.90
843;DHT22;407;48.884;9.126;2023-06-14T13:03:39;29.00;99.90
843;DHT22;407;48.884;9.126;2023-06-14T13:06:05;28.90;99.90
843;DHT22;407;48.884;9.126;2023-06-14T13:08:31;28.30;99.90
843;DHT22;407;48.884;9.126;2023-06-14T13:10:56;27.60;99.90
843;DHT22;407;48.884;9.126;2023-06-14T13:13:23;27.40;99.90
843;DHT22;407;48.884;9.126;2023-06-14T13:15:48;27.40;99.90
843;DHT22;407;48.884;9.126;2023-06-14T13:18:15;27.90;99.90
843;DHT22;407;48.884;9.126;2023-06-14T13:20:42;28.20;99.90
843;DHT22;407;48.884;9.126;2023-06-14T13:23:08;28.20;99.90
843;DHT22;407;48.884;9.126;2023-06-14T13:25:36;28.00;99.90
843;DHT22;407;48.884;9.126;2023-06-14T13:28:02;28.40;99.90
843;DHT22;407;48.884;9.126;2023-06-14T13:30:27;28.60;99.90
843;DHT22;407;48.884;9.126;2023-06-14T13:32:53;28.50;99.90
843;DHT22;407;48.884;9.126;2023-06-14T13:35:19;28.30;99.90
843;DHT22;407;48.884;9.126;2023-06-14T13:37:45;28.30;99.90
843;DHT22;407;48.884;9.126;2023-06-14T13:40:11;28.00;99.90
843;DHT22;407;48.884;9.126;2023-06-14T13:42:37;27.60;99.90
843;DHT22;407;48.884;9.126;2023-06-14T13:45:03;27.60;99.90
843;DHT22;407;48.884;9.126;2023-06-14T13:47:29;27.30;99.90
843;DHT22;407;48.884;9.126;2023-06-14T13:49:56;27.00;99.90
843;DHT22;407;48.884;9.126;2023-06-14T13:52:21;27.00;99.90
843;DHT22;407;48.884;9.126;2023-06-14T13:54:47;27.20;99.90
843;DHT22;407;48.884;9.126;2023-06-14T13:57:12;27.50;99.90
843;DHT22;407;48.884;9.126;2023-06-14T13:59:38;27.90;99.90
843;DHT22;407;48.884;9.126;2023-06-14T14:02:05;28.00;99.90
843;DHT22;407;48.884;9.126;2023-06-14T14:04:31;28.20;99.90
843;DHT22;407;48.884;9.126;2023-06-14T14:06:56;28.00;99.90
843;DHT22;407;48.884;9.126;2023-06-14T14:09:22;27.90;99.90
843;DHT22;407;48.884;9.126;2023-06-14T14:11:48;28.30;99.90
843;DHT22;407;48.884;9.126;2023-06-14T14:14:14;28.40;99.90
843;DHT22;407;48.884;9.126;2023-06-14T14:16:40;28.40;99.90
843;DHT22;407;48.884;9.126;2023-06-14T14:19:05;28.50;99.90
843;DHT22;407;48.884;9.126;2023-06-14T14:21:32;28.60;99.90
843;DHT22;407;48.884;9.126;2023-06-14T14:23:58;28.80;99.90
843;DHT22;407;48.884;9.126;2023-06-14T14:26:24;28.80;99.90
843;DHT22;407;48.884;9.126;2023-06-14T14:28:50;28.70;99.90
843;DHT22;407;48.884;9.126;2023-06-14T14:31:16;28.40;99.90
843;DHT22;407;48.884;9.126;2023-06-14T14:33:42;28.00;99.90
843;DHT22;407;48.884;9.126;2023-06-14T14:36:08;27.60;99.90
843;DHT22;407;48.884;9.126;2023-06-14T14:38:33;27.90;99.90
843;DHT22;407;48.884;9.126;2023-06-14T14:40:59;28.20;99.90
843;DHT22;407;48.884;9.126;2023-06-14T14:43:24;28.20;99.90
843;DHT22;407;48.884;9.126;2023-06-14T14:45:50;28.00;99.90
843;DHT22;407;48.884;9.126;2023-06-14T14:48:16;27.50;99.90
843;DHT22;407;48.884;9.126;2023-06-14T14:50:41;27.30;99.90
843;DHT22;407;48.884;9.126;2023-06-14T14:53:07;27.30;99.90
843;DHT22;407;48.884;9.126;2023-06-14T14:55:33;27.40;99.90
843;DHT22;407;48.884;9.126;2023-06-14T14:58:01;27.60;99.90
843;DHT22;407;48.884;9.126;2023-06-14T15:00:28;27.90;99.90
843;DHT22;407;48.884;9.126;2023-06-14T15:02:53;28.00;99.90
843;DHT22;407;48.884;9.126;2023-06-14T15:05:19;28.00;99.90
843;DHT22;407;48.884;9.126;2023-06-14T15:07:45;28.20;99.90
843;DHT22;407;48.884;9.126;2023-06-14T15:10:11;27.90;99.90
843;DHT22;407;48.884;9.126;2023-06-14T15:12:36;27.90;99.90
843;DHT22;407;48.884;9.126;2023-06-14T15:15:03;27.70;99.90
843;DHT22;407;48.884;9.126;2023-06-14T15:17:30;27.90;99.90
843;DHT22;407;48.884;9.126;2023-06-14T15:19:56;28.20;99.90
843;DHT22;407;48.884;9.126;2023-06-14T15:22:21;28.20;99.90
843;DHT22;407;48.884;9.126;2023-06-14T15:24:47;28.10;99.90
843;DHT22;407;48.884;9.126;2023-06-14T15:27:13;27.80;99.90
843;DHT22;407;48.884;9.126;2023-06-14T15:29:41;27.80;99.90
843;DHT22;407;48.884;9.126;2023-06-14T15:32:07;28.00;99.90
843;DHT22;407;48.884;9.126;2023-06-14T15:34:36;27.80;99.90
843;DHT22;407;48.884;9.126;2023-06-14T15:37:04;27.60;99.90
843;DHT22;407;48.884;9.126;2023-06-14T15:39:31;27.20;99.90
843;DHT22;407;48.884;9.126;2023-06-14T15:41:58;27.00;99.90
843;DHT22;407;48.884;9.126;2023-06-14T15:44:26;26.80;99.90
843;DHT22;407;48.884;9.126;2023-06-14T15:46:52;26.60;99.90
843;DHT22;407;48.884;9.126;2023-06-14T15:49:17;26.70;99.90
843;DHT22;407;48.884;9.126;2023-06-14T15:51:44;26.80;99.90
843;DHT22;407;48.884;9.126;2023-06-14T15:54:10;26.80;99.90
843;DHT22;407;48.884;9.126;2023-06-14T15:56:36;26.80;99.90
843;DHT22;407;48.884;9.126;2023-06-14T15:59:02;26.90;99.90
843;DHT22;407;48.884;9.126;2023-06-14T16:01:28;26.80;99.90
843;DHT22;407;48.884;9.126;2023-06-14T16:03:53;26.90;99.90
843;DHT22;407;48.884;9.126;2023-06-14T16:06:19;26.70;99.90
843;DHT22;407;48.884;9.126;2023-06-14T16:08:47;26.60;99.90
843;DHT22;407;48.884;9.126;2023-06-14T16:11:12;26.50;99.90
843;DHT22;407;48.884;9.126;2023-06-14T16:13:41;26.40;99.90
843;DHT22;407;48.884;9.126;2023-06-14T16:16:11;26.40;99.90
843;DHT22;407;48.884;9.126;2023-06-14T16:18:37;26.30;99.90
843;DHT22;407;48.884;9.126;2023-06-14T16:21:03;26.50;99.90
843;DHT22;407;48.884;9.126;2023-06-14T16:23:32;26.50;99.90
843;DHT22;407;48.884;9.126;2023-06-14T16:25:57;26.40;99.90
843;DHT22;407;48.884;9.126;2023-06-14T16:28:23;26.00;99.90
843;DHT22;407;48.884;9.126;2023-06-14T16:30:49;26.00;99.90
843;DHT22;407;48.884;9.126;2023-06-14T16:33:15;26.00;99.90
843;DHT22;407;48.884;9.126;2023-06-14T16:35:40;25.80;99.90
843;DHT22;407;48.884;9.126;2023-06-14T16:38:06;25.80;99.90
843;DHT22;407;48.884;9.126;2023-06-14T16:40:32;25.90;99.90
843;DHT22;407;48.884;9.126;2023-06-14T16:42:58;26.10;99.90
843;DHT22;407;48.884;9.126;2023-06-14T16:45:24;26.10;99.90
843;DHT22;407;48.884;9.126;2023-06-14T16:47:49;26.10;99.90
843;DHT22;407;48.884;9.126;2023-06-14T16:50:15;26.10;99.90
843;DHT22;407;48.884;9.126;2023-06-14T16:52:40;26.00;99.90
843;DHT22;407;48.884;9.126;2023-06-14T16:55:06;25.60;99.90